Spalding, United Kingdom
Current Conditions -  °F | °C
As of 3:50 AM on Tuesday 23 Dec 2014 (Local Time) from EGXT Reporting Station
Broken Clouds Broken Clouds  
Wind Chill: 52°   Ceiling: 3400
Heat Index: 52°   Visibility: 6mi
Dew Point: 45°   Wind: 23mph
Humidity: 76%   Direction: 240°WSW
Pressure: 29.91"   Gusts: NA
Location:  52.79°N, 0.15°W
Report Text: EGXT 230350Z AUTO 24020KT 9999 FEW028/// BKN034/// 11/07 Q1013
Loading
Personal Weather Stations






























Interactive Weather Map New forecast layout! Learn more

10-Day Weather Forecast

Advertisements
Track Severe Weather on mobile